sensor_id;sensor_type;location;lat;lon;timestamp;P1;durP1;ratioP1;P2;durP2;ratioP2
16957;SDS011;8595;52.542;11.974;2023-04-24T00:02:02;6.50;;;5.32;;
16957;SDS011;8595;52.542;11.974;2023-04-24T00:04:29;7.07;;;6.38;;
16957;SDS011;8595;52.542;11.974;2023-04-24T00:06:56;6.25;;;5.65;;
16957;SDS011;8595;52.542;11.974;2023-04-24T00:09:25;6.53;;;5.93;;
16957;SDS011;8595;52.542;11.974;2023-04-24T00:11:52;6.22;;;5.30;;
16957;SDS011;8595;52.542;11.974;2023-04-24T00:14:22;6.50;;;5.90;;
16957;SDS011;8595;52.542;11.974;2023-04-24T00:16:49;6.40;;;5.85;;
16957;SDS011;8595;52.542;11.974;2023-04-24T00:19:15;6.45;;;5.85;;
16957;SDS011;8595;52.542;11.974;2023-04-24T00:21:42;5.97;;;5.38;;
16957;SDS011;8595;52.542;11.974;2023-04-24T00:24:09;7.93;;;5.85;;
16957;SDS011;8595;52.542;11.974;2023-04-24T00:26:35;6.90;;;6.28;;
16957;SDS011;8595;52.542;11.974;2023-04-24T00:29:02;6.85;;;5.90;;
16957;SDS011;8595;52.542;11.974;2023-04-24T00:31:30;6.35;;;5.70;;
16957;SDS011;8595;52.542;11.974;2023-04-24T00:33:59;6.88;;;5.38;;
16957;SDS011;8595;52.542;11.974;2023-04-24T00:36:26;6.20;;;5.70;;
16957;SDS011;8595;52.542;11.974;2023-04-24T00:38:53;6.63;;;5.88;;
16957;SDS011;8595;52.542;11.974;2023-04-24T00:41:20;5.93;;;5.43;;
16957;SDS011;8595;52.542;11.974;2023-04-24T00:43:48;6.07;;;5.47;;
16957;SDS011;8595;52.542;11.974;2023-04-24T00:46:16;6.40;;;5.90;;
16957;SDS011;8595;52.542;11.974;2023-04-24T00:48:44;6.20;;;5.63;;
16957;SDS011;8595;52.542;11.974;2023-04-24T00:51:11;5.32;;;4.80;;
16957;SDS011;8595;52.542;11.974;2023-04-24T00:53:38;7.63;;;5.90;;
16957;SDS011;8595;52.542;11.974;2023-04-24T00:56:08;6.22;;;5.63;;
16957;SDS011;8595;52.542;11.974;2023-04-24T00:58:37;7.57;;;6.22;;
16957;SDS011;8595;52.542;11.974;2023-04-24T01:01:05;6.15;;;5.45;;
16957;SDS011;8595;52.542;11.974;2023-04-24T01:03:32;5.85;;;5.32;;
16957;SDS011;8595;52.542;11.974;2023-04-24T01:06:03;6.07;;;5.35;;
16957;SDS011;8595;52.542;11.974;2023-04-24T01:08:31;5.95;;;5.25;;
16957;SDS011;8595;52.542;11.974;2023-04-24T01:10:58;7.80;;;6.10;;
16957;SDS011;8595;52.542;11.974;2023-04-24T01:13:29;6.50;;;5.32;;
16957;SDS011;8595;52.542;11.974;2023-04-24T01:15:56;6.43;;;5.82;;
16957;SDS011;8595;52.542;11.974;2023-04-24T01:18:23;7.20;;;5.30;;
16957;SDS011;8595;52.542;11.974;2023-04-24T01:20:52;7.20;;;6.60;;
16957;SDS011;8595;52.542;11.974;2023-04-24T01:23:25;6.35;;;5.85;;
16957;SDS011;8595;52.542;11.974;2023-04-24T01:25:54;6.38;;;5.78;;
16957;SDS011;8595;52.542;11.974;2023-04-24T01:28:21;8.15;;;5.43;;
16957;SDS011;8595;52.542;11.974;2023-04-24T01:30:48;6.45;;;5.13;;
16957;SDS011;8595;52.542;11.974;2023-04-24T01:33:15;7.82;;;5.40;;
16957;SDS011;8595;52.542;11.974;2023-04-24T01:35:43;6.13;;;5.53;;
16957;SDS011;8595;52.542;11.974;2023-04-24T01:38:10;6.15;;;5.57;;
16957;SDS011;8595;52.542;11.974;2023-04-24T01:40:38;5.57;;;5.07;;
16957;SDS011;8595;52.542;11.974;2023-04-24T01:43:05;6.78;;;6.13;;
16957;SDS011;8595;52.542;11.974;2023-04-24T01:45:32;5.70;;;5.20;;
16957;SDS011;8595;52.542;11.974;2023-04-24T01:47:59;6.72;;;5.25;;
16957;SDS011;8595;52.542;11.974;2023-04-24T01:50:26;6.53;;;5.78;;
16957;SDS011;8595;52.542;11.974;2023-04-24T01:52:54;5.72;;;5.22;;
16957;SDS011;8595;52.542;11.974;2023-04-24T01:55:21;5.38;;;4.88;;
16957;SDS011;8595;52.542;11.974;2023-04-24T01:57:49;5.78;;;5.28;;
16957;SDS011;8595;52.542;11.974;2023-04-24T02:00:18;6.32;;;5.82;;
16957;SDS011;8595;52.542;11.974;2023-04-24T02:02:45;7.80;;;5.20;;
16957;SDS011;8595;52.542;11.974;2023-04-24T02:05:12;6.55;;;5.95;;
16957;SDS011;8595;52.542;11.974;2023-04-24T02:07:39;6.78;;;5.88;;
16957;SDS011;8595;52.542;11.974;2023-04-24T02:10:06;5.28;;;4.85;;
16957;SDS011;8595;52.542;11.974;2023-04-24T02:12:33;6.72;;;6.05;;
16957;SDS011;8595;52.542;11.974;2023-04-24T02:15:01;6.10;;;5.50;;
16957;SDS011;8595;52.542;11.974;2023-04-24T02:17:28;6.78;;;6.18;;
16957;SDS011;8595;52.542;11.974;2023-04-24T02:19:55;7.28;;;6.68;;
16957;SDS011;8595;52.542;11.974;2023-04-24T02:22:23;6.30;;;5.70;;
16957;SDS011;8595;52.542;11.974;2023-04-24T02:24:50;8.02;;;5.80;;
16957;SDS011;8595;52.542;11.974;2023-04-24T02:27:17;8.30;;;5.43;;
16957;SDS011;8595;52.542;11.974;2023-04-24T02:29:43;6.28;;;5.68;;
16957;SDS011;8595;52.542;11.974;2023-04-24T02:32:13;6.70;;;6.10;;
16957;SDS011;8595;52.542;11.974;2023-04-24T02:34:40;6.75;;;6.07;;
16957;SDS011;8595;52.542;11.974;2023-04-24T02:37:07;6.38;;;5.22;;
16957;SDS011;8595;52.542;11.974;2023-04-24T02:39:35;8.00;;;5.72;;
16957;SDS011;8595;52.542;11.974;2023-04-24T02:42:02;7.15;;;6.00;;
16957;SDS011;8595;52.542;11.974;2023-04-24T02:44:29;8.55;;;6.10;;
16957;SDS011;8595;52.542;11.974;2023-04-24T02:46:56;5.95;;;5.38;;
16957;SDS011;8595;52.542;11.974;2023-04-24T02:49:25;6.13;;;5.53;;
16957;SDS011;8595;52.542;11.974;2023-04-24T02:51:53;6.25;;;5.20;;
16957;SDS011;8595;52.542;11.974;2023-04-24T02:54:19;6.85;;;5.57;;
16957;SDS011;8595;52.542;11.974;2023-04-24T02:56:46;5.97;;;5.28;;
16957;SDS011;8595;52.542;11.974;2023-04-24T02:59:13;7.63;;;6.18;;
16957;SDS011;8595;52.542;11.974;2023-04-24T03:01:41;7.10;;;6.40;;
16957;SDS011;8595;52.542;11.974;2023-04-24T03:04:07;5.18;;;4.75;;
16957;SDS011;8595;52.542;11.974;2023-04-24T03:06:36;5.40;;;4.90;;
16957;SDS011;8595;52.542;11.974;2023-04-24T03:09:03;6.05;;;5.45;;
16957;SDS011;8595;52.542;11.974;2023-04-24T03:11:31;5.93;;;5.30;;
16957;SDS011;8595;52.542;11.974;2023-04-24T03:13:58;8.18;;;6.57;;
16957;SDS011;8595;52.542;11.974;2023-04-24T03:16:25;6.28;;;5.68;;
16957;SDS011;8595;52.542;11.974;2023-04-24T03:18:51;6.38;;;5.72;;
16957;SDS011;8595;52.542;11.974;2023-04-24T03:21:18;5.60;;;5.10;;
16957;SDS011;8595;52.542;11.974;2023-04-24T03:23:46;6.35;;;5.38;;
16957;SDS011;8595;52.542;11.974;2023-04-24T03:26:13;7.75;;;5.15;;
16957;SDS011;8595;52.542;11.974;2023-04-24T03:28:40;5.78;;;5.18;;
16957;SDS011;8595;52.542;11.974;2023-04-24T03:31:06;5.40;;;4.90;;
16957;SDS011;8595;52.542;11.974;2023-04-24T03:33:33;6.25;;;5.10;;
16957;SDS011;8595;52.542;11.974;2023-04-24T03:36:01;5.45;;;4.95;;
16957;SDS011;8595;52.542;11.974;2023-04-24T03:38:27;4.40;;;4.00;;
16957;SDS011;8595;52.542;11.974;2023-04-24T03:40:55;5.47;;;4.63;;
16957;SDS011;8595;52.542;11.974;2023-04-24T03:43:22;6.00;;;4.65;;
16957;SDS011;8595;52.542;11.974;2023-04-24T03:45:49;5.88;;;4.15;;
16957;SDS011;8595;52.542;11.974;2023-04-24T03:48:16;4.80;;;4.40;;
16957;SDS011;8595;52.542;11.974;2023-04-24T03:50:44;5.22;;;4.05;;
16957;SDS011;8595;52.542;11.974;2023-04-24T03:53:11;5.97;;;4.38;;
16957;SDS011;8595;52.542;11.974;2023-04-24T03:55:38;4.78;;;4.35;;
16957;SDS011;8595;52.542;11.974;2023-04-24T03:58:06;6.20;;;4.47;;
16957;SDS011;8595;52.542;11.974;2023-04-24T04:00:34;4.45;;;4.05;;
16957;SDS011;8595;52.542;11.974;2023-04-24T04:03:02;4.95;;;4.43;;
16957;SDS011;8595;52.542;11.974;2023-04-24T04:05:29;4.72;;;4.32;;
16957;SDS011;8595;52.542;11.974;2023-04-24T04:07:55;4.78;;;4.35;;
16957;SDS011;8595;52.542;11.974;2023-04-24T04:10:22;4.53;;;4.13;;
16957;SDS011;8595;52.542;11.974;2023-04-24T04:12:49;5.50;;;4.70;;
16957;SDS011;8595;52.542;11.974;2023-04-24T04:15:17;4.90;;;4.40;;
16957;SDS011;8595;52.542;11.974;2023-04-24T04:17:44;5.88;;;4.47;;
16957;SDS011;8595;52.542;11.974;2023-04-24T04:20:12;4.47;;;4.07;;
16957;SDS011;8595;52.542;11.974;2023-04-24T04:22:38;7.38;;;4.35;;
16957;SDS011;8595;52.542;11.974;2023-04-24T04:25:05;6.63;;;4.97;;
16957;SDS011;8595;52.542;11.974;2023-04-24T04:27:33;6.97;;;4.97;;
16957;SDS011;8595;52.542;11.974;2023-04-24T04:30:01;4.72;;;4.32;;
16957;SDS011;8595;52.542;11.974;2023-04-24T04:32:31;5.93;;;4.38;;
16957;SDS011;8595;52.542;11.974;2023-04-24T04:34:58;4.60;;;4.20;;
16957;SDS011;8595;52.542;11.974;2023-04-24T04:37:28;5.07;;;4.35;;
16957;SDS011;8595;52.542;11.974;2023-04-24T04:39:56;7.85;;;4.90;;
16957;SDS011;8595;52.542;11.974;2023-04-24T04:42:23;6.05;;;5.13;;
16957;SDS011;8595;52.542;11.974;2023-04-24T04:44:49;8.18;;;4.50;;
16957;SDS011;8595;52.542;11.974;2023-04-24T04:47:18;4.50;;;4.10;;
16957;SDS011;8595;52.542;11.974;2023-04-24T04:49:49;4.57;;;4.15;;
16957;SDS011;8595;52.542;11.974;2023-04-24T04:52:16;6.00;;;3.80;;
16957;SDS011;8595;52.542;11.974;2023-04-24T04:54:43;3.72;;;3.42;;
16957;SDS011;8595;52.542;11.974;2023-04-24T04:57:11;6.20;;;5.60;;
16957;SDS011;8595;52.542;11.974;2023-04-24T04:59:38;4.53;;;3.85;;
16957;SDS011;8595;52.542;11.974;2023-04-24T05:02:06;4.43;;;3.85;;
16957;SDS011;8595;52.542;11.974;2023-04-24T05:04:33;4.97;;;4.55;;
16957;SDS011;8595;52.542;11.974;2023-04-24T05:07:02;8.63;;;4.60;;
16957;SDS011;8595;52.542;11.974;2023-04-24T05:09:29;6.38;;;4.43;;
16957;SDS011;8595;52.542;11.974;2023-04-24T05:11:56;4.28;;;3.88;;
16957;SDS011;8595;52.542;11.974;2023-04-24T05:14:23;4.47;;;4.07;;
16957;SDS011;8595;52.542;11.974;2023-04-24T05:16:50;3.88;;;3.55;;
16957;SDS011;8595;52.542;11.974;2023-04-24T05:19:16;4.72;;;4.28;;
16957;SDS011;8595;52.542;11.974;2023-04-24T05:21:43;4.07;;;3.67;;
16957;SDS011;8595;52.542;11.974;2023-04-24T05:24:11;4.28;;;3.80;;
16957;SDS011;8595;52.542;11.974;2023-04-24T05:26:40;4.05;;;3.47;;
16957;SDS011;8595;52.542;11.974;2023-04-24T05:29:07;5.63;;;3.40;;
16957;SDS011;8595;52.542;11.974;2023-04-24T05:31:34;4.20;;;3.80;;
16957;SDS011;8595;52.542;11.974;2023-04-24T05:34:00;5.68;;;3.50;;
16957;SDS011;8595;52.542;11.974;2023-04-24T05:36:27;4.15;;;3.58;;
16957;SDS011;8595;52.542;11.974;2023-04-24T05:38:55;4.72;;;3.08;;
16957;SDS011;8595;52.542;11.974;2023-04-24T05:41:23;3.33;;;3.00;;
16957;SDS011;8595;52.542;11.974;2023-04-24T05:43:55;5.18;;;3.45;;
16957;SDS011;8595;52.542;11.974;2023-04-24T05:46:37;5.03;;;3.70;;
16957;SDS011;8595;52.542;11.974;2023-04-24T05:49:08;4.65;;;3.35;;
16957;SDS011;8595;52.542;11.974;2023-04-24T05:51:36;4.15;;;3.25;;
16957;SDS011;8595;52.542;11.974;2023-04-24T05:54:04;3.53;;;3.22;;
16957;SDS011;8595;52.542;11.974;2023-04-24T05:56:32;3.40;;;3.10;;
16957;SDS011;8595;52.542;11.974;2023-04-24T05:58:59;4.05;;;3.65;;
16957;SDS011;8595;52.542;11.974;2023-04-24T06:01:26;3.65;;;3.35;;
16957;SDS011;8595;52.542;11.974;2023-04-24T06:03:52;5.60;;;3.13;;
16957;SDS011;8595;52.542;11.974;2023-04-24T06:06:20;3.22;;;3.00;;
16957;SDS011;8595;52.542;11.974;2023-04-24T06:08:47;3.38;;;3.10;;
16957;SDS011;8595;52.542;11.974;2023-04-24T06:11:14;4.22;;;3.55;;
16957;SDS011;8595;52.542;11.974;2023-04-24T06:13:43;3.65;;;3.20;;
16957;SDS011;8595;52.542;11.974;2023-04-24T06:16:10;3.72;;;2.58;;
16957;SDS011;8595;52.542;11.974;2023-04-24T06:18:36;3.85;;;3.55;;
16957;SDS011;8595;52.542;11.974;2023-04-24T06:21:03;2.80;;;2.60;;
16957;SDS011;8595;52.542;11.974;2023-04-24T06:23:31;4.43;;;3.45;;
16957;SDS011;8595;52.542;11.974;2023-04-24T06:25:58;3.22;;;2.92;;
16957;SDS011;8595;52.542;11.974;2023-04-24T06:28:25;4.53;;;2.90;;
16957;SDS011;8595;52.542;11.974;2023-04-24T06:30:54;2.90;;;2.70;;
16957;SDS011;8595;52.542;11.974;2023-04-24T06:33:20;2.95;;;2.72;;
16957;SDS011;8595;52.542;11.974;2023-04-24T06:35:47;3.13;;;2.83;;
16957;SDS011;8595;52.542;11.974;2023-04-24T06:38:15;3.40;;;3.10;;
16957;SDS011;8595;52.542;11.974;2023-04-24T06:40:43;5.60;;;2.90;;
16957;SDS011;8595;52.542;11.974;2023-04-24T06:43:11;3.58;;;2.95;;
16957;SDS011;8595;52.542;11.974;2023-04-24T06:45:41;5.30;;;2.90;;
16957;SDS011;8595;52.542;11.974;2023-04-24T06:48:10;3.20;;;2.90;;
16957;SDS011;8595;52.542;11.974;2023-04-24T06:50:37;3.10;;;2.50;;
16957;SDS011;8595;52.542;11.974;2023-04-24T06:53:06;4.70;;;2.25;;
16957;SDS011;8595;52.542;11.974;2023-04-24T06:55:33;5.57;;;2.65;;
16957;SDS011;8595;52.542;11.974;2023-04-24T06:58:01;4.47;;;2.80;;
16957;SDS011;8595;52.542;11.974;2023-04-24T07:00:28;3.47;;;2.92;;
16957;SDS011;8595;52.542;11.974;2023-04-24T07:02:55;2.70;;;2.35;;
16957;SDS011;8595;52.542;11.974;2023-04-24T07:05:23;3.10;;;2.60;;
16957;SDS011;8595;52.542;11.974;2023-04-24T07:07:50;3.90;;;2.75;;
16957;SDS011;8595;52.542;11.974;2023-04-24T07:10:17;3.53;;;2.40;;
16957;SDS011;8595;52.542;11.974;2023-04-24T07:12:45;4.65;;;2.35;;
16957;SDS011;8595;52.542;11.974;2023-04-24T07:15:13;3.65;;;1.95;;
16957;SDS011;8595;52.542;11.974;2023-04-24T07:17:42;3.85;;;2.15;;
16957;SDS011;8595;52.542;11.974;2023-04-24T07:20:09;4.82;;;2.10;;
16957;SDS011;8595;52.542;11.974;2023-04-24T07:22:38;2.80;;;2.28;;
16957;SDS011;8595;52.542;11.974;2023-04-24T07:25:05;3.70;;;1.98;;
16957;SDS011;8595;52.542;11.974;2023-04-24T07:27:34;2.10;;;1.88;;
16957;SDS011;8595;52.542;11.974;2023-04-24T07:30:02;3.58;;;1.90;;
16957;SDS011;8595;52.542;11.974;2023-04-24T07:32:29;2.92;;;1.58;;
16957;SDS011;8595;52.542;11.974;2023-04-24T07:34:59;1.85;;;1.73;;
16957;SDS011;8595;52.542;11.974;2023-04-24T07:37:27;2.67;;;1.83;;
16957;SDS011;8595;52.542;11.974;2023-04-24T07:39:56;3.08;;;1.70;;
16957;SDS011;8595;52.542;11.974;2023-04-24T07:42:23;2.47;;;1.90;;
16957;SDS011;8595;52.542;11.974;2023-04-24T07:44:50;3.55;;;1.52;;
16957;SDS011;8595;52.542;11.974;2023-04-24T07:47:18;2.40;;;1.90;;
16957;SDS011;8595;52.542;11.974;2023-04-24T07:49:45;4.22;;;2.25;;
16957;SDS011;8595;52.542;11.974;2023-04-24T07:52:12;2.70;;;1.85;;
16957;SDS011;8595;52.542;11.974;2023-04-24T07:54:38;2.85;;;2.10;;
16957;SDS011;8595;52.542;11.974;2023-04-24T07:57:07;3.35;;;1.80;;
16957;SDS011;8595;52.542;11.974;2023-04-24T07:59:34;2.20;;;1.75;;
16957;SDS011;8595;52.542;11.974;2023-04-24T08:02:01;4.00;;;1.77;;
16957;SDS011;8595;52.542;11.974;2023-04-24T08:04:29;1.80;;;1.70;;
16957;SDS011;8595;52.542;11.974;2023-04-24T08:06:56;2.38;;;1.88;;
16957;SDS011;8595;52.542;11.974;2023-04-24T08:09:23;4.00;;;2.13;;
16957;SDS011;8595;52.542;11.974;2023-04-24T08:11:50;4.28;;;1.70;;
16957;SDS011;8595;52.542;11.974;2023-04-24T08:14:19;3.28;;;1.85;;
16957;SDS011;8595;52.542;11.974;2023-04-24T08:16:46;1.85;;;1.52;;
16957;SDS011;8595;52.542;11.974;2023-04-24T08:19:13;3.25;;;1.95;;
16957;SDS011;8595;52.542;11.974;2023-04-24T08:21:40;4.45;;;2.47;;
16957;SDS011;8595;52.542;11.974;2023-04-24T08:24:06;5.88;;;1.95;;
16957;SDS011;8595;52.542;11.974;2023-04-24T08:26:33;2.88;;;1.80;;
16957;SDS011;8595;52.542;11.974;2023-04-24T08:29:01;2.92;;;1.67;;
16957;SDS011;8595;52.542;11.974;2023-04-24T08:31:29;6.95;;;1.90;;
16957;SDS011;8595;52.542;11.974;2023-04-24T08:33:56;3.22;;;1.90;;
16957;SDS011;8595;52.542;11.974;2023-04-24T08:36:23;4.05;;;1.85;;
16957;SDS011;8595;52.542;11.974;2023-04-24T08:38:50;3.75;;;2.25;;
16957;SDS011;8595;52.542;11.974;2023-04-24T08:41:17;11.93;;;2.35;;
16957;SDS011;8595;52.542;11.974;2023-04-24T08:43:45;9.25;;;2.40;;
16957;SDS011;8595;52.542;11.974;2023-04-24T08:46:13;4.43;;;2.03;;
16957;SDS011;8595;52.542;11.974;2023-04-24T08:48:42;1.60;;;1.48;;
16957;SDS011;8595;52.542;11.974;2023-04-24T08:51:12;2.75;;;1.65;;
16957;SDS011;8595;52.542;11.974;2023-04-24T08:53:39;7.70;;;2.10;;
16957;SDS011;8595;52.542;11.974;2023-04-24T08:56:06;2.00;;;1.30;;
16957;SDS011;8595;52.542;11.974;2023-04-24T08:58:33;4.28;;;1.90;;
16957;SDS011;8595;52.542;11.974;2023-04-24T09:01:01;4.03;;;1.35;;
16957;SDS011;8595;52.542;11.974;2023-04-24T09:03:29;1.50;;;1.40;;
16957;SDS011;8595;52.542;11.974;2023-04-24T09:05:57;3.55;;;1.48;;
16957;SDS011;8595;52.542;11.974;2023-04-24T09:08:26;3.67;;;1.33;;
16957;SDS011;8595;52.542;11.974;2023-04-24T09:10:55;1.15;;;1.13;;
16957;SDS011;8595;52.542;11.974;2023-04-24T09:13:23;3.47;;;1.48;;
16957;SDS011;8595;52.542;11.974;2023-04-24T09:15:50;2.42;;;1.50;;
16957;SDS011;8595;52.542;11.974;2023-04-24T09:18:19;2.55;;;1.48;;
16957;SDS011;8595;52.542;11.974;2023-04-24T09:21:01;2.58;;;1.63;;
16957;SDS011;8595;52.542;11.974;2023-04-24T09:23:30;8.05;;;2.20;;
16957;SDS011;8595;52.542;11.974;2023-04-24T09:25:58;4.30;;;1.60;;
16957;SDS011;8595;52.542;11.974;2023-04-24T09:28:26;2.05;;;1.50;;
16957;SDS011;8595;52.542;11.974;2023-04-24T09:31:04;1.60;;;1.50;;
16957;SDS011;8595;52.542;11.974;2023-04-24T09:33:34;6.95;;;1.70;;
16957;SDS011;8595;52.542;11.974;2023-04-24T09:36:02;2.35;;;1.40;;
16957;SDS011;8595;52.542;11.974;2023-04-24T09:38:31;7.95;;;2.00;;
16957;SDS011;8595;52.542;11.974;2023-04-24T09:40:59;4.55;;;1.38;;
16957;SDS011;8595;52.542;11.974;2023-04-24T09:43:28;6.80;;;2.22;;
16957;SDS011;8595;52.542;11.974;2023-04-24T09:45:57;4.95;;;1.35;;
16957;SDS011;8595;52.542;11.974;2023-04-24T09:48:32;4.80;;;1.35;;
16957;SDS011;8595;52.542;11.974;2023-04-24T09:51:00;3.42;;;1.27;;
16957;SDS011;8595;52.542;11.974;2023-04-24T09:53:30;7.07;;;1.30;;
16957;SDS011;8595;52.542;11.974;2023-04-24T09:56:01;2.78;;;1.35;;
16957;SDS011;8595;52.542;11.974;2023-04-24T09:58:29;5.55;;;1.90;;
16957;SDS011;8595;52.542;11.974;2023-04-24T10:01:01;3.65;;;1.77;;
16957;SDS011;8595;52.542;11.974;2023-04-24T10:03:30;4.18;;;1.58;;
16957;SDS011;8595;52.542;11.974;2023-04-24T10:05:58;2.30;;;1.63;;
16957;SDS011;8595;52.542;11.974;2023-04-24T10:08:25;1.73;;;1.50;;
16957;SDS011;8595;52.542;11.974;2023-04-24T10:10:53;27.50;;;19.23;;
16957;SDS011;8595;52.542;11.974;2023-04-24T10:13:20;1.38;;;1.27;;
16957;SDS011;8595;52.542;11.974;2023-04-24T10:15:47;1.50;;;1.33;;
16957;SDS011;8595;52.542;11.974;2023-04-24T10:18:15;3.97;;;1.35;;
16957;SDS011;8595;52.542;11.974;2023-04-24T10:20:42;2.38;;;1.92;;
16957;SDS011;8595;52.542;11.974;2023-04-24T10:23:09;4.30;;;1.88;;
16957;SDS011;8595;52.542;11.974;2023-04-24T10:25:37;2.95;;;1.70;;
16957;SDS011;8595;52.542;11.974;2023-04-24T10:28:05;1.58;;;1.48;;
16957;SDS011;8595;52.542;11.974;2023-04-24T10:30:33;2.90;;;1.88;;
16957;SDS011;8595;52.542;11.974;2023-04-24T10:33:01;2.05;;;1.90;;
16957;SDS011;8595;52.542;11.974;2023-04-24T10:35:30;2.63;;;1.98;;
16957;SDS011;8595;52.542;11.974;2023-04-24T10:37:58;2.55;;;1.90;;
16957;SDS011;8595;52.542;11.974;2023-04-24T10:40:30;2.20;;;2.00;;
16957;SDS011;8595;52.542;11.974;2023-04-24T10:42:57;3.92;;;1.80;;
16957;SDS011;8595;52.542;11.974;2023-04-24T10:45:26;2.25;;;2.05;;
16957;SDS011;8595;52.542;11.974;2023-04-24T10:47:56;2.97;;;2.15;;
16957;SDS011;8595;52.542;11.974;2023-04-24T10:50:26;4.55;;;2.80;;
16957;SDS011;8595;52.542;11.974;2023-04-24T10:52:55;2.70;;;2.50;;
16957;SDS011;8595;52.542;11.974;2023-04-24T10:55:44;3.15;;;2.55;;
16957;SDS011;8595;52.542;11.974;2023-04-24T10:58:12;3.67;;;2.25;;
16957;SDS011;8595;52.542;11.974;2023-04-24T11:00:41;2.40;;;2.20;;
16957;SDS011;8595;52.542;11.974;2023-04-24T11:03:22;3.50;;;2.35;;
16957;SDS011;8595;52.542;11.974;2023-04-24T11:05:52;2.53;;;2.33;;
16957;SDS011;8595;52.542;11.974;2023-04-24T11:08:24;5.30;;;2.40;;
16957;SDS011;8595;52.542;11.974;2023-04-24T11:10:59;3.00;;;2.60;;
16957;SDS011;8595;52.542;11.974;2023-04-24T11:14:00;5.72;;;2.55;;
16957;SDS011;8595;52.542;11.974;2023-04-24T11:16:29;7.80;;;2.65;;
16957;SDS011;8595;52.542;11.974;2023-04-24T11:19:01;2.97;;;2.40;;
16957;SDS011;8595;52.542;11.974;2023-04-24T11:21:38;2.42;;;2.22;;
16957;SDS011;8595;52.542;11.974;2023-04-24T11:26:57;4.10;;;2.42;;
16957;SDS011;8595;52.542;11.974;2023-04-24T11:29:39;6.25;;;2.40;;
16957;SDS011;8595;52.542;11.974;2023-04-24T11:32:16;11.82;;;8.23;;
16957;SDS011;8595;52.542;11.974;2023-04-24T11:34:50;2.55;;;2.03;;
16957;SDS011;8595;52.542;11.974;2023-04-24T11:37:18;2.47;;;2.25;;
16957;SDS011;8595;52.542;11.974;2023-04-24T11:39:46;1.90;;;1.80;;
16957;SDS011;8595;52.542;11.974;2023-04-24T11:42:14;3.05;;;1.80;;
16957;SDS011;8595;52.542;11.974;2023-04-24T11:44:42;1.50;;;1.40;;
16957;SDS011;8595;52.542;11.974;2023-04-24T11:47:11;1.70;;;1.60;;
16957;SDS011;8595;52.542;11.974;2023-04-24T11:49:39;1.80;;;1.70;;
16957;SDS011;8595;52.542;11.974;2023-04-24T11:52:06;3.17;;;2.00;;
16957;SDS011;8595;52.542;11.974;2023-04-24T11:54:34;1.83;;;1.67;;
16957;SDS011;8595;52.542;11.974;2023-04-24T11:57:03;2.47;;;1.75;;
16957;SDS011;8595;52.542;11.974;2023-04-24T11:59:34;1.98;;;1.80;;
16957;SDS011;8595;52.542;11.974;2023-04-24T12:02:01;1.88;;;1.77;;
16957;SDS011;8595;52.542;11.974;2023-04-24T12:04:38;2.65;;;2.00;;
16957;SDS011;8595;52.542;11.974;2023-04-24T12:07:07;10.30;;;2.22;;
16957;SDS011;8595;52.542;11.974;2023-04-24T12:09:41;3.72;;;2.05;;
16957;SDS011;8595;52.542;11.974;2023-04-24T12:12:10;2.20;;;1.88;;
16957;SDS011;8595;52.542;11.974;2023-04-24T12:17:26;2.10;;;1.60;;
16957;SDS011;8595;52.542;11.974;2023-04-24T12:19:59;12.40;;;2.60;;
16957;SDS011;8595;52.542;11.974;2023-04-24T12:22:27;7.47;;;3.33;;
16957;SDS011;8595;52.542;11.974;2023-04-24T12:24:55;2.88;;;1.88;;
16957;SDS011;8595;52.542;11.974;2023-04-24T12:27:24;1.85;;;1.67;;
16957;SDS011;8595;52.542;11.974;2023-04-24T12:29:51;4.93;;;2.35;;
16957;SDS011;8595;52.542;11.974;2023-04-24T12:32:19;2.72;;;2.03;;
16957;SDS011;8595;52.542;11.974;2023-04-24T12:34:46;4.15;;;2.17;;
16957;SDS011;8595;52.542;11.974;2023-04-24T12:37:18;2.47;;;2.00;;
16957;SDS011;8595;52.542;11.974;2023-04-24T12:39:57;2.55;;;2.22;;
16957;SDS011;8595;52.542;11.974;2023-04-24T12:42:25;3.30;;;2.67;;
16957;SDS011;8595;52.542;11.974;2023-04-24T12:44:55;5.03;;;2.53;;
16957;SDS011;8595;52.542;11.974;2023-04-24T12:47:23;3.63;;;2.53;;
16957;SDS011;8595;52.542;11.974;2023-04-24T12:49:50;3.90;;;2.45;;
16957;SDS011;8595;52.542;11.974;2023-04-24T12:52:18;2.40;;;2.20;;
16957;SDS011;8595;52.542;11.974;2023-04-24T12:54:47;2.80;;;1.95;;
16957;SDS011;8595;52.542;11.974;2023-04-24T12:57:14;3.50;;;2.17;;
16957;SDS011;8595;52.542;11.974;2023-04-24T12:59:41;5.90;;;2.45;;
16957;SDS011;8595;52.542;11.974;2023-04-24T13:02:08;5.55;;;2.33;;
16957;SDS011;8595;52.542;11.974;2023-04-24T13:04:35;2.97;;;2.47;;
16957;SDS011;8595;52.542;11.974;2023-04-24T13:07:03;3.22;;;2.63;;
16957;SDS011;8595;52.542;11.974;2023-04-24T13:09:33;2.45;;;2.25;;
16957;SDS011;8595;52.542;11.974;2023-04-24T13:12:00;3.05;;;2.08;;
16957;SDS011;8595;52.542;11.974;2023-04-24T13:14:27;2.25;;;2.05;;
16957;SDS011;8595;52.542;11.974;2023-04-24T13:16:54;2.08;;;1.95;;
16957;SDS011;8595;52.542;11.974;2023-04-24T13:19:21;2.38;;;2.08;;
16957;SDS011;8595;52.542;11.974;2023-04-24T13:21:50;1.85;;;1.70;;
16957;SDS011;8595;52.542;11.974;2023-04-24T13:24:17;2.10;;;1.88;;
16957;SDS011;8595;52.542;11.974;2023-04-24T13:26:46;2.25;;;2.05;;
16957;SDS011;8595;52.542;11.974;2023-04-24T13:29:13;2.03;;;1.85;;
16957;SDS011;8595;52.542;11.974;2023-04-24T13:31:40;4.95;;;1.88;;
16957;SDS011;8595;52.542;11.974;2023-04-24T13:34:06;3.20;;;1.85;;
16957;SDS011;8595;52.542;11.974;2023-04-24T13:36:33;2.40;;;2.20;;
16957;SDS011;8595;52.542;11.974;2023-04-24T13:39:01;2.70;;;2.08;;
16957;SDS011;8595;52.542;11.974;2023-04-24T13:41:29;2.40;;;2.03;;
16957;SDS011;8595;52.542;11.974;2023-04-24T13:43:57;3.17;;;1.98;;
16957;SDS011;8595;52.542;11.974;2023-04-24T13:46:24;1.90;;;1.75;;
16957;SDS011;8595;52.542;11.974;2023-04-24T13:48:50;4.15;;;1.88;;
16957;SDS011;8595;52.542;11.974;2023-04-24T13:51:17;3.38;;;1.98;;
16957;SDS011;8595;52.542;11.974;2023-04-24T13:53:44;4.65;;;2.20;;
16957;SDS011;8595;52.542;11.974;2023-04-24T13:56:11;2.97;;;1.88;;
16957;SDS011;8595;52.542;11.974;2023-04-24T13:58:39;1.80;;;1.70;;
16957;SDS011;8595;52.542;11.974;2023-04-24T14:01:07;2.90;;;1.95;;
16957;SDS011;8595;52.542;11.974;2023-04-24T14:03:34;3.22;;;2.00;;
16957;SDS011;8595;52.542;11.974;2023-04-24T14:06:03;3.67;;;2.40;;
16957;SDS011;8595;52.542;11.974;2023-04-24T14:08:30;2.47;;;1.73;;
16957;SDS011;8595;52.542;11.974;2023-04-24T14:10:56;2.17;;;2.00;;
16957;SDS011;8595;52.542;11.974;2023-04-24T14:13:23;2.65;;;2.45;;
16957;SDS011;8595;52.542;11.974;2023-04-24T14:15:51;3.88;;;2.28;;
16957;SDS011;8595;52.542;11.974;2023-04-24T14:18:19;2.47;;;2.28;;
16957;SDS011;8595;52.542;11.974;2023-04-24T14:20:46;2.00;;;1.90;;
16957;SDS011;8595;52.542;11.974;2023-04-24T14:23:13;2.40;;;2.08;;
16957;SDS011;8595;52.542;11.974;2023-04-24T14:25:40;2.65;;;2.22;;
16957;SDS011;8595;52.542;11.974;2023-04-24T14:28:06;3.30;;;2.22;;
16957;SDS011;8595;52.542;11.974;2023-04-24T14:30:33;2.55;;;2.35;;
16957;SDS011;8595;52.542;11.974;2023-04-24T14:33:02;2.28;;;2.00;;
16957;SDS011;8595;52.542;11.974;2023-04-24T14:35:31;2.88;;;2.58;;
16957;SDS011;8595;52.542;11.974;2023-04-24T14:38:00;2.60;;;2.40;;
16957;SDS011;8595;52.542;11.974;2023-04-24T14:40:27;2.85;;;2.13;;
16957;SDS011;8595;52.542;11.974;2023-04-24T14:42:54;2.50;;;2.30;;
16957;SDS011;8595;52.542;11.974;2023-04-24T14:45:22;3.80;;;2.38;;
16957;SDS011;8595;52.542;11.974;2023-04-24T14:47:48;6.35;;;2.17;;
16957;SDS011;8595;52.542;11.974;2023-04-24T14:50:15;5.57;;;1.60;;
16957;SDS011;8595;52.542;11.974;2023-04-24T14:52:45;2.40;;;1.17;;
16957;SDS011;8595;52.542;11.974;2023-04-24T14:55:11;1.83;;;1.70;;
16957;SDS011;8595;52.542;11.974;2023-04-24T14:57:39;4.72;;;1.50;;
16957;SDS011;8595;52.542;11.974;2023-04-24T15:00:06;1.40;;;1.20;;